Time;durP1;ratioP1;P1;durP2;ratioP2;P2;SDS_P1;SDS_P2;PMS_P1;PMS_P2;Temp;Humidity;BMP_temperature;BMP_pressure;BME280_temperature;BME280_humidity;BME280_pressure;Samples;Min_cycle;Max_cycle;Signal;HPM_P1;HPM_P2
2024/02/13 00:01:46;;;;;;;;;;;;;;;6.10;90.81;100559.78;4157061;28;20019;-69
2024/02/13 00:03:47;;;;;;;;;;;;;;;6.09;90.89;100555.41;4157515;28;20513;-68
2024/02/13 00:05:51;;;;;;;;;;;;;;;6.09;90.78;100560.78;4157343;28;20020;-69
2024/02/13 00:07:53;;;;;;;;;;;;;;;6.07;91.15;100570.81;4156655;28;20016;-68
2024/02/13 00:09:55;;;;;;;;;;;;;;;6.06;91.26;100557.56;4156471;28;20032;-68
2024/02/13 00:11:57;;;;;;;;;;;;;;;6.05;91.36;100577.31;4156552;28;19956;-68
2024/02/13 00:14:00;;;;;;;;;;;;;;;6.03;91.04;100569.41;4171058;28;20043;-68
2024/02/13 00:16:03;;;;;;;;;;;;;;;6.01;91.24;100584.81;4156870;28;20036;-67
2024/02/13 00:18:05;;;;;;;;;;;;;;;6.00;91.32;100580.44;4156355;28;20052;-68
2024/02/13 00:20:08;;;;;;;;;;;;;;;6.00;91.25;100587.66;4155828;28;20021;-69
2024/02/13 00:22:11;;;;;;;;;;;;;;;5.98;91.65;100586.97;4157807;28;20016;-68
2024/02/13 00:24:14;;;;;;;;;;;;;;;5.97;91.70;100594.16;4156856;28;20025;-68
2024/02/13 00:26:16;;;;;;;;;;;;;;;5.98;91.73;100586.97;4158433;28;20031;-68
2024/02/13 00:28:19;;;;;;;;;;;;;;;5.97;91.62;100594.16;4157350;28;20020;-69
2024/02/13 00:30:23;;;;;;;;;;;;;;;5.96;91.39;100597.81;4156592;28;20023;-69
2024/02/13 00:32:25;;;;;;;;;;;;;;;5.95;91.77;100602.31;4155705;28;20048;-69
2024/02/13 00:34:27;;;;;;;;;;;;;;;5.92;91.91;100602.66;4156030;28;20290;-68
2024/02/13 00:36:32;;;;;;;;;;;;;;;5.92;91.88;100605.31;4156809;28;20434;-69
2024/02/13 00:38:34;;;;;;;;;;;;;;;5.91;91.77;100605.47;4156970;28;20028;-68
2024/02/13 00:40:35;;;;;;;;;;;;;;;5.89;91.65;100607.44;4156498;28;20040;-68
2024/02/13 00:42:39;;;;;;;;;;;;;;;5.88;91.99;100611.97;4156502;28;20482;-68
2024/02/13 00:44:41;;;;;;;;;;;;;;;5.87;91.79;100617.47;4155467;28;19976;-68
2024/02/13 00:46:45;;;;;;;;;;;;;;;5.87;91.70;100612.13;4155695;28;20025;-68
2024/02/13 00:48:47;;;;;;;;;;;;;;;5.88;91.88;100617.31;4156213;28;20443;-69
2024/02/13 00:50:49;;;;;;;;;;;;;;;5.88;91.99;100629.91;4155594;28;20016;-69
2024/02/13 00:52:53;;;;;;;;;;;;;;;5.85;91.87;100617.63;4156210;28;19936;-68
2024/02/13 00:54:55;;;;;;;;;;;;;;;5.85;91.71;100631.03;4156048;28;20020;-68
2024/02/13 00:56:57;;;;;;;;;;;;;;;5.84;91.77;100636.53;4155352;28;20098;-69
2024/02/13 00:59:02;;;;;;;;;;;;;;;5.83;92.00;100632.16;4155885;28;20011;-68
2024/02/13 01:01:04;;;;;;;;;;;;;;;5.82;91.75;100638.53;4154250;28;20020;-68
2024/02/13 01:03:09;;;;;;;;;;;;;;;5.82;91.81;100641.22;4155935;28;20024;-68
2024/02/13 01:05:11;;;;;;;;;;;;;;;5.81;91.70;100642.19;4156947;28;20020;-69
2024/02/13 01:07:13;;;;;;;;;;;;;;;5.79;92.01;100639.66;4155327;28;20032;-68
2024/02/13 01:09:15;;;;;;;;;;;;;;;5.78;91.75;100648.69;4156087;28;20025;-69
2024/02/13 01:11:18;;;;;;;;;;;;;;;5.77;92.00;100644.34;4155075;28;20016;-68
2024/02/13 01:13:20;;;;;;;;;;;;;;;5.76;91.94;100643.47;4155575;28;20024;-68
2024/02/13 01:15:23;;;;;;;;;;;;;;;5.76;91.84;100648.81;4154783;28;20037;-68
2024/02/13 01:17:26;;;;;;;;;;;;;;;5.75;91.97;100648.97;4156650;28;20019;-68
2024/02/13 01:19:30;;;;;;;;;;;;;;;5.75;91.89;100654.34;4156025;28;19972;-69
2024/02/13 01:21:32;;;;;;;;;;;;;;;5.74;91.73;100658.84;4155454;28;20011;-68
2024/02/13 01:23:34;;;;;;;;;;;;;;;5.75;92.09;100665.06;4155997;28;20031;-68
2024/02/13 01:25:37;;;;;;;;;;;;;;;5.74;91.98;100664.22;4156048;28;20461;-69
2024/02/13 01:27:40;;;;;;;;;;;;;;;5.74;91.92;100658.84;4156063;28;20020;-69
2024/02/13 01:29:42;;;;;;;;;;;;;;;5.75;91.93;100670.41;4154918;28;20056;-68
2024/02/13 01:31:46;;;;;;;;;;;;;;;5.75;91.74;100676.63;4154390;28;20020;-68
2024/02/13 01:33:48;;;;;;;;;;;;;;;5.73;92.09;100667.03;4155658;28;20503;-69
2024/02/13 01:35:52;;;;;;;;;;;;;;;5.76;92.16;100670.25;4155804;28;20021;-68
2024/02/13 01:37:56;;;;;;;;;;;;;;;5.77;92.24;100676.50;4155114;28;20047;-68
2024/02/13 01:39:59;;;;;;;;;;;;;;;5.77;92.13;100677.31;4154591;28;20020;-69
2024/02/13 01:42:01;;;;;;;;;;;;;;;5.78;92.21;100680.84;4154575;28;20024;-69
2024/02/13 01:44:04;;;;;;;;;;;;;;;5.80;92.12;100680.69;4156056;28;20472;-69
2024/02/13 01:46:06;;;;;;;;;;;;;;;5.80;92.37;100689.59;4169826;28;20035;-68
2024/02/13 01:48:10;;;;;;;;;;;;;;;5.81;92.42;100688.59;4155651;28;20450;-68
2024/02/13 01:50:14;;;;;;;;;;;;;;;5.81;92.18;100693.94;4154699;28;20373;-68
2024/02/13 01:52:17;;;;;;;;;;;;;;;5.83;92.08;100694.66;4155205;28;20117;-68
2024/02/13 01:54:19;;;;;;;;;;;;;;;5.84;92.24;100699.00;4155970;28;19929;-69
2024/02/13 01:56:24;;;;;;;;;;;;;;;5.85;92.09;100690.00;4155732;28;20037;-69
2024/02/13 01:58:26;;;;;;;;;;;;;;;5.87;92.23;100689.84;4155403;28;20368;-68
2024/02/13 02:00:28;;;;;;;;;;;;;;;5.87;92.39;100696.03;4154750;28;20024;-68
2024/02/13 02:02:33;;;;;;;;;;;;;;;5.89;92.15;100698.56;4153336;28;20399;-68
2024/02/13 02:04:34;;;;;;;;;;;;;;;5.90;92.16;100694.91;4155158;28;20031;-68
2024/02/13 02:06:36;;;;;;;;;;;;;;;5.93;92.45;100699.97;4154924;28;20403;-68
2024/02/13 02:08:39;;;;;;;;;;;;;;;5.92;92.26;100709.88;4154921;28;20012;-69
2024/02/13 02:10:44;;;;;;;;;;;;;;;5.95;92.22;100714.06;4154919;28;20446;-68
2024/02/13 02:12:49;;;;;;;;;;;;;;;5.93;92.05;100708.03;4155296;28;20032;-69
2024/02/13 02:14:52;;;;;;;;;;;;;;;5.97;92.13;100712.09;4156173;28;19925;-69
2024/02/13 02:16:54;;;;;;;;;;;;;;;5.98;92.17;100712.97;4155163;28;20013;-68
2024/02/13 02:18:56;;;;;;;;;;;;;;;6.00;92.15;100721.69;4168906;28;20028;-68
2024/02/13 02:20:58;;;;;;;;;;;;;;;6.01;91.79;100723.41;4155056;28;20502;-68
2024/02/13 02:23:00;;;;;;;;;;;;;;;6.02;91.88;100725.06;4154193;28;20041;-68
2024/02/13 02:25:07;;;;;;;;;;;;;;;6.00;91.72;100724.38;4154909;28;20016;-68
2024/02/13 02:27:08;;;;;;;;;;;;;;;6.03;92.05;100730.28;4154471;28;20734;-68
2024/02/13 02:29:10;;;;;;;;;;;;;;;6.04;91.77;100729.31;4154704;28;20365;-68
2024/02/13 02:31:14;;;;;;;;;;;;;;;6.06;91.63;100735.34;4153970;28;20004;-68
2024/02/13 02:33:15;;;;;;;;;;;;;;;6.08;91.72;100737.88;4154733;28;20040;-68
2024/02/13 02:35:17;;;;;;;;;;;;;;;6.08;91.61;100730.72;4152888;28;20433;-68
2024/02/13 02:37:19;;;;;;;;;;;;;;;6.10;91.61;100738.59;4154307;28;20020;-69
2024/02/13 02:39:21;;;;;;;;;;;;;;;6.10;91.48;100734.06;4154108;28;20028;-68
2024/02/13 02:41:24;;;;;;;;;;;;;;;6.12;91.52;100733.94;4154412;28;20016;-68
2024/02/13 02:43:26;;;;;;;;;;;;;;;6.12;91.53;100733.94;4153195;28;20631;-69
2024/02/13 02:45:27;;;;;;;;;;;;;;;6.13;91.37;100736.47;4156049;28;20016;-69
2024/02/13 02:47:29;;;;;;;;;;;;;;;6.13;91.23;100747.19;4153405;28;19987;-68
2024/02/13 02:49:31;;;;;;;;;;;;;;;6.15;90.97;100748.88;4154018;28;20015;-68
2024/02/13 02:51:33;;;;;;;;;;;;;;;6.15;90.78;100747.03;4154081;28;20391;-69
2024/02/13 02:53:35;;;;;;;;;;;;;;;6.17;91.12;100754.94;4154209;28;20363;-69
2024/02/13 02:55:37;;;;;;;;;;;;;;;6.17;90.59;100757.63;4154518;28;19940;-69
2024/02/13 02:57:41;;;;;;;;;;;;;;;6.17;90.79;100763.81;4154115;28;20024;-69
2024/02/13 02:59:46;;;;;;;;;;;;;;;6.17;90.36;100766.50;4154552;28;20020;-68
2024/02/13 03:01:48;;;;;;;;;;;;;;;6.17;90.63;100771.03;4153974;28;20077;-68
2024/02/13 03:03:50;;;;;;;;;;;;;;;6.19;90.38;100774.41;4154781;28;20463;-68
2024/02/13 03:05:52;;;;;;;;;;;;;;;6.20;90.52;100781.47;4154371;28;20020;-68
2024/02/13 03:07:54;;;;;;;;;;;;;;;6.20;90.29;100786.84;4154550;28;20028;-68
2024/02/13 03:09:56;;;;;;;;;;;;;;;6.20;90.40;100787.66;4153440;28;20371;-68
2024/02/13 03:11:59;;;;;;;;;;;;;;;6.21;90.28;100792.03;4154356;28;20044;-68
2024/02/13 03:14:05;;;;;;;;;;;;;;;6.21;89.87;100792.03;4154441;28;20743;-70
2024/02/13 03:16:07;;;;;;;;;;;;;;;6.22;89.97;100798.25;4160134;28;19942;-69
2024/02/13 03:18:09;;;;;;;;;;;;;;;6.22;89.90;100801.78;4153556;28;19955;-70
2024/02/13 03:20:12;;;;;;;;;;;;;;;6.24;90.11;100807.00;4154428;28;20024;-69
2024/02/13 03:22:14;;;;;;;;;;;;;;;6.24;89.72;100804.31;4154467;28;20023;-69
2024/02/13 03:24:16;;;;;;;;;;;;;;;6.25;89.63;100803.31;4154810;28;20016;-68
2024/02/13 03:26:18;;;;;;;;;;;;;;;6.23;89.40;100811.50;4154315;28;20363;-69
2024/02/13 03:28:20;;;;;;;;;;;;;;;6.23;89.60;100808.00;4155757;28;20031;-69
2024/02/13 03:30:22;;;;;;;;;;;;;;;6.25;89.55;100819.41;4154612;28;20365;-69
2024/02/13 03:32:25;;;;;;;;;;;;;;;6.24;89.39;100823.09;4154066;28;20019;-69
2024/02/13 03:34:26;;;;;;;;;;;;;;;6.25;89.31;100827.47;4155197;28;20031;-69
2024/02/13 03:36:28;;;;;;;;;;;;;;;6.25;89.11;100827.47;4154611;28;20040;-69
2024/02/13 03:38:30;;;;;;;;;;;;;;;6.24;89.00;100831.16;4154542;28;20028;-70
2024/02/13 03:40:32;;;;;;;;;;;;;;;6.23;89.08;100834.81;4153961;28;20031;-69
2024/02/13 03:42:36;;;;;;;;;;;;;;;6.22;88.88;100836.66;4154616;28;20027;-69
2024/02/13 03:44:38;;;;;;;;;;;;;;;6.22;89.16;100841.16;4153884;28;20060;-69
2024/02/13 03:46:42;;;;;;;;;;;;;;;6.21;88.87;100839.50;4154337;28;20339;-69
2024/02/13 03:48:43;;;;;;;;;;;;;;;6.20;88.97;100849.34;4153939;28;20096;-69
2024/02/13 03:50:45;;;;;;;;;;;;;;;6.20;89.05;100853.88;4153378;28;20011;-69
2024/02/13 03:52:47;;;;;;;;;;;;;;;6.20;88.85;100867.28;4153951;28;20008;-69
2024/02/13 03:54:49;;;;;;;;;;;;;;;6.20;88.99;100860.06;4154654;28;20396;-69
2024/02/13 03:56:51;;;;;;;;;;;;;;;6.19;88.64;100870.94;4153756;28;19925;-69
2024/02/13 03:58:52;;;;;;;;;;;;;;;6.19;88.95;100873.63;4154814;28;20035;-69
2024/02/13 04:00:54;;;;;;;;;;;;;;;6.18;89.00;100870.13;4152714;28;19926;-69
2024/02/13 04:02:58;;;;;;;;;;;;;;;6.18;88.69;100872.78;4153695;28;20023;-69
2024/02/13 04:04:59;;;;;;;;;;;;;;;6.18;88.99;100872.78;4153628;28;20020;-69
2024/02/13 04:07:02;;;;;;;;;;;;;;;6.18;88.61;100883.53;4154622;28;20040;-69
2024/02/13 04:09:06;;;;;;;;;;;;;;;6.19;88.88;100876.31;4153955;28;20628;-69
2024/02/13 04:11:09;;;;;;;;;;;;;;;6.18;88.63;100877.31;4156512;28;20346;-69
2024/02/13 04:13:10;;;;;;;;;;;;;;;6.19;88.55;100876.31;4157167;28;20016;-69
2024/02/13 04:15:13;;;;;;;;;;;;;;;6.19;88.78;100887.03;4156318;28;20017;-69
2024/02/13 04:17:16;;;;;;;;;;;;;;;6.18;88.79;100891.56;4156758;28;19929;-69
2024/02/13 04:19:19;;;;;;;;;;;;;;;6.19;88.91;100900.44;4156532;28;20016;-69
2024/02/13 04:21:20;;;;;;;;;;;;;;;6.19;88.54;100901.31;4156392;28;20374;-69
2024/02/13 04:23:22;;;;;;;;;;;;;;;6.19;88.79;100906.69;4157465;28;20374;-69
2024/02/13 04:25:24;;;;;;;;;;;;;;;6.21;88.59;100906.53;4157003;28;20024;-69
2024/02/13 04:27:26;;;;;;;;;;;;;;;6.21;88.66;100917.25;4157489;28;20019;-69
2024/02/13 04:29:28;;;;;;;;;;;;;;;6.20;88.77;100913.72;4156838;28;20028;-69
2024/02/13 04:31:29;;;;;;;;;;;;;;;6.20;88.66;100916.41;4156296;28;20481;-69
2024/02/13 04:33:31;;;;;;;;;;;;;;;6.20;88.39;100916.41;4156087;28;19937;-69
2024/02/13 04:35:34;;;;;;;;;;;;;;;6.20;88.53;100919.09;4156629;28;20629;-69
2024/02/13 04:37:36;;;;;;;;;;;;;;;6.21;88.57;100919.94;4157174;28;19929;-69
2024/02/13 04:39:38;;;;;;;;;;;;;;;6.20;88.49;100921.75;4156735;28;20016;-69
2024/02/13 04:41:42;;;;;;;;;;;;;;;6.20;88.32;100926.28;4155504;28;20446;-69
2024/02/13 04:43:44;;;;;;;;;;;;;;;6.20;88.21;100924.44;4155917;28;20036;-69
2024/02/13 04:45:45;;;;;;;;;;;;;;;6.20;88.08;100927.13;4155612;28;20396;-69
2024/02/13 04:47:47;;;;;;;;;;;;;;;6.20;88.29;100923.59;4156451;28;20020;-69
2024/02/13 04:49:49;;;;;;;;;;;;;;;6.19;88.33;100924.59;4155716;28;20457;-69
2024/02/13 04:51:52;;;;;;;;;;;;;;;6.18;88.18;100934.47;4156262;28;20024;-69
2024/02/13 04:53:55;;;;;;;;;;;;;;;6.18;88.14;100933.66;4155820;28;20478;-69
2024/02/13 04:55:56;;;;;;;;;;;;;;;6.17;87.90;100935.47;4154344;28;20136;-69
2024/02/13 04:57:59;;;;;;;;;;;;;;;6.17;88.21;100940.00;4156660;28;19956;-69
2024/02/13 05:00:05;;;;;;;;;;;;;;;6.17;88.07;100938.13;4155240;28;20020;-69
2024/02/13 05:02:08;;;;;;;;;;;;;;;6.15;87.86;100926.72;4155905;28;20633;-69
2024/02/13 05:08:53;;;;;;;;;;;;;;;6.12;87.92;100941.25;4156123;28;20024;-69
2024/02/13 05:10:56;;;;;;;;;;;;;;;6.10;88.02;100943.25;4155341;28;20375;-69
2024/02/13 05:12:58;;;;;;;;;;;;;;;6.10;87.97;100942.41;4155778;28;20020;-69
2024/02/13 05:15:02;;;;;;;;;;;;;;;6.09;87.98;100951.44;4156274;28;20021;-69
2024/02/13 05:17:04;;;;;;;;;;;;;;;6.07;87.71;100951.56;4155693;28;20024;-69
2024/02/13 05:19:06;;;;;;;;;;;;;;;6.07;87.75;100946.22;4156940;28;19950;-69
2024/02/13 05:21:08;;;;;;;;;;;;;;;6.05;87.88;100952.69;4154879;28;20007;-69
2024/02/13 05:23:10;;;;;;;;;;;;;;;6.04;87.95;100951.03;4154942;28;20024;-69
2024/02/13 05:25:13;;;;;;;;;;;;;;;6.02;88.00;100956.53;4155115;28;20048;-69
2024/02/13 05:27:15;;;;;;;;;;;;;;;6.01;88.00;100962.03;4155490;28;20449;-69
2024/02/13 05:29:17;;;;;;;;;;;;;;;6.00;87.75;100961.16;4155121;28;20032;-69
2024/02/13 05:31:20;;;;;;;;;;;;;;;6.00;87.89;100965.69;4153786;28;20024;-69
2024/02/13 05:33:22;;;;;;;;;;;;;;;5.98;87.91;100975.72;4154779;28;20028;-69
2024/02/13 05:35:24;;;;;;;;;;;;;;;5.97;87.95;100971.31;4155908;28;20035;-69
2024/02/13 05:37:26;;;;;;;;;;;;;;;5.98;87.97;100986.44;4155435;28;20015;-69
2024/02/13 05:39:28;;;;;;;;;;;;;;;5.96;88.25;100983.88;4154588;28;19925;-69
2024/02/13 05:41:32;;;;;;;;;;;;;;;5.94;88.34;100978.66;4155282;28;20442;-69
2024/02/13 05:43:34;;;;;;;;;;;;;;;5.94;88.08;100977.78;4154518;28;20019;-69
2024/02/13 05:45:36;;;;;;;;;;;;;;;5.94;88.05;100980.47;4156331;28;20040;-69
2024/02/13 05:47:38;;;;;;;;;;;;;;;5.94;88.14;100988.50;4155099;28;20488;-70
2024/02/13 05:49:40;;;;;;;;;;;;;;;5.91;88.39;100997.69;4154960;28;20024;-70
2024/02/13 05:51:42;;;;;;;;;;;;;;;5.90;88.13;100998.66;4154469;28;20067;-70
2024/02/13 05:53:44;;;;;;;;;;;;;;;5.90;88.42;101003.19;4155223;28;20019;-70
2024/02/13 05:55:46;;;;;;;;;;;;;;;5.90;88.52;101000.50;4155267;28;20036;-70
2024/02/13 05:57:49;;;;;;;;;;;;;;;5.90;88.44;101006.72;4154659;28;20004;-71
2024/02/13 05:59:51;;;;;;;;;;;;;;;5.89;88.41;101013.06;4154609;28;20362;-71
2024/02/13 06:01:55;;;;;;;;;;;;;;;5.89;88.49;101018.44;4154953;28;20017;-70
2024/02/13 06:04:01;;;;;;;;;;;;;;;5.88;88.43;101013.22;4155681;28;20031;-69
2024/02/13 06:06:05;;;;;;;;;;;;;;;5.89;88.12;101020.25;4155130;28;20020;-70
2024/02/13 06:08:06;;;;;;;;;;;;;;;5.88;88.31;101029.31;4154662;28;20012;-70
2024/02/13 06:10:10;;;;;;;;;;;;;;;5.88;88.29;101031.97;4153183;28;20021;-69
2024/02/13 06:12:12;;;;;;;;;;;;;;;5.88;88.23;101030.13;4155409;28;20667;-71
2024/02/13 06:14:15;;;;;;;;;;;;;;;5.88;88.04;101030.13;4154159;28;20012;-69
2024/02/13 06:16:17;;;;;;;;;;;;;;;5.89;88.27;101036.34;4155418;28;20466;-70
2024/02/13 06:18:19;;;;;;;;;;;;;;;5.89;88.32;101044.38;4154001;28;20024;-70
2024/02/13 06:20:21;;;;;;;;;;;;;;;5.87;88.57;101044.53;4154447;28;20572;-70
2024/02/13 06:22:23;;;;;;;;;;;;;;;5.86;88.30;101047.34;4154712;28;20038;-70
2024/02/13 06:24:25;;;;;;;;;;;;;;;5.87;88.26;101049.03;4155459;28;20000;-69
2024/02/13 06:26:27;;;;;;;;;;;;;;;5.86;88.54;101052.69;4155177;28;20016;-68
2024/02/13 06:28:29;;;;;;;;;;;;;;;5.86;88.59;101053.56;4153568;28;20021;-69
2024/02/13 06:30:32;;;;;;;;;;;;;;;5.86;88.44;101052.69;4154563;28;20055;-68
2024/02/13 06:32:35;;;;;;;;;;;;;;;5.87;88.64;101057.09;4153314;28;20023;-70
2024/02/13 06:34:37;;;;;;;;;;;;;;;5.87;88.57;101065.13;4154027;28;20012;-68
2024/02/13 06:36:39;;;;;;;;;;;;;;;5.87;88.71;101062.44;4154224;28;20016;-69
2024/02/13 06:38:41;;;;;;;;;;;;;;;5.87;88.63;101073.16;4153312;28;20016;-69
2024/02/13 06:40:43;;;;;;;;;;;;;;;5.86;88.77;101069.66;4153466;28;20375;-69
2024/02/13 06:42:44;;;;;;;;;;;;;;;5.86;88.41;101069.66;4153569;28;20020;-69
2024/02/13 06:44:47;;;;;;;;;;;;;;;5.86;88.80;101074.13;4154836;28;19969;-69
2024/02/13 06:46:51;;;;;;;;;;;;;;;5.86;88.48;101082.19;4153905;28;20365;-69
2024/02/13 06:48:53;;;;;;;;;;;;;;;5.86;88.50;101074.13;4153637;28;20064;-70
2024/02/13 06:50:55;;;;;;;;;;;;;;;5.86;88.33;101079.50;4154737;28;20027;-69
2024/02/13 06:52:57;;;;;;;;;;;;;;;5.85;88.27;101077.84;4154046;28;20362;-69
2024/02/13 06:54:59;;;;;;;;;;;;;;;5.85;88.62;101080.50;4154597;28;20031;-69
2024/02/13 06:57:01;;;;;;;;;;;;;;;5.84;88.65;101092.22;4154628;28;20056;-68
2024/02/13 06:59:03;;;;;;;;;;;;;;;5.84;88.63;101092.22;4153359;28;20040;-69
2024/02/13 07:01:06;;;;;;;;;;;;;;;5.82;88.62;101083.47;4152927;28;19979;-68
2024/02/13 07:03:09;;;;;;;;;;;;;;;5.83;88.66;101087.81;4153243;28;20451;-69
2024/02/13 07:05:12;;;;;;;;;;;;;;;5.81;88.34;101093.31;4153875;28;20016;-69
2024/02/13 07:07:14;;;;;;;;;;;;;;;5.80;88.45;101099.69;4153745;28;20024;-69
2024/02/13 07:09:16;;;;;;;;;;;;;;;5.80;88.80;101102.38;4153991;28;20111;-67
2024/02/13 07:11:18;;;;;;;;;;;;;;;5.81;88.72;101101.34;4152911;28;20008;-68
2024/02/13 07:13:20;;;;;;;;;;;;;;;5.81;88.54;101105.88;4153559;28;20016;-68
2024/02/13 07:15:22;;;;;;;;;;;;;;;5.80;88.72;101105.03;4154647;28;20052;-67
2024/02/13 07:17:24;;;;;;;;;;;;;;;5.80;89.00;101109.53;4153954;28;20028;-68
2024/02/13 07:19:28;;;;;;;;;;;;;;;5.78;88.82;101104.31;4153393;28;20632;-68
2024/02/13 07:21:33;;;;;;;;;;;;;;;5.78;88.75;101104.31;4152565;28;19961;-68
2024/02/13 07:23:35;;;;;;;;;;;;;;;5.78;89.03;101107.00;4154533;28;20024;-68
2024/02/13 07:25:37;;;;;;;;;;;;;;;5.77;89.13;101108.00;4154230;28;20027;-68
2024/02/13 07:27:40;;;;;;;;;;;;;;;5.76;89.16;101112.50;4154359;28;20027;-68
2024/02/13 16:23:20;;;;;;;;;;;;;;;8.06;73.08;101351.16;576780;22;20245;-89
2024/02/13 16:25:43;;;;;;;;;;;;;;;8.04;73.12;101347.75;4158860;28;20013;-91
2024/02/13 16:28:05;;;;;;;;;;;;;;;8.02;73.41;101357.81;4143373;28;19937;-91
2024/02/13 16:30:26;;;;;;;;;;;;;;;8.00;73.28;101351.72;4147401;28;19983;-89
2024/02/13 16:32:46;;;;;;;;;;;;;;;7.99;73.21;101363.47;4143076;28;19976;-85
2024/02/13 16:35:08;;;;;;;;;;;;;;;7.95;73.12;101362.94;4155667;28;20024;-84
2024/02/13 16:37:33;;;;;;;;;;;;;;;7.92;73.14;101364.06;4157507;28;19948;-85
2024/02/13 16:39:53;;;;;;;;;;;;;;;7.89;72.80;101372.41;4157751;28;19956;-85
2024/02/13 16:42:15;;;;;;;;;;;;;;;7.88;73.17;101365.34;4156226;28;20029;-84
2024/02/13 16:44:36;;;;;;;;;;;;;;;7.85;73.11;101365.66;4164369;28;19936;-86
2024/02/13 16:46:59;;;;;;;;;;;;;;;7.84;73.05;101373.84;4151646;28;19960;-84
2024/02/13 16:49:28;;;;;;;;;;;;;;;7.80;73.20;101375.97;4166813;28;19931;-84
2024/02/13 16:51:49;;;;;;;;;;;;;;;7.76;72.87;101372.72;4163589;28;19932;-86
2024/02/13 16:54:10;;;;;;;;;;;;;;;7.74;73.08;101373.84;4148159;28;20000;-86
2024/02/13 16:56:31;;;;;;;;;;;;;;;7.71;73.04;101377.69;4160439;28;20458;-86
2024/02/13 16:58:53;;;;;;;;;;;;;;;7.68;72.94;101379.78;4159294;28;19933;-86
2024/02/13 17:01:14;;;;;;;;;;;;;;;7.67;73.05;101383.50;4148327;28;20461;-90
2024/02/13 17:03:35;;;;;;;;;;;;;;;7.65;73.12;101389.00;4150498;28;20053;-88
2024/02/13 17:05:56;;;;;;;;;;;;;;;7.61;73.18;101390.28;4164188;28;20329;-88
2024/02/13 17:08:16;;;;;;;;;;;;;;;7.58;73.06;101396.75;4144843;28;20398;-90
2024/02/13 17:10:40;;;;;;;;;;;;;;;7.55;73.41;101402.47;4144528;28;19971;-88
2024/02/13 17:13:05;;;;;;;;;;;;;;;7.51;73.59;101403.72;4154370;28;20012;-83
2024/02/13 17:15:31;;;;;;;;;;;;;;;7.48;73.60;101408.53;4167633;28;19960;-90
2024/02/13 17:17:55;;;;;;;;;;;;;;;7.43;73.42;101406.25;4147813;28;19933;-89
2024/02/13 17:20:41;;;;;;;;;;;;;;;7.42;73.41;101422.53;4161411;28;20402;-88
2024/02/13 17:23:04;;;;;;;;;;;;;;;7.38;73.64;101428.19;4138597;28;19936;-91
2024/02/13 17:25:27;;;;;;;;;;;;;;;7.35;73.73;101430.28;4144882;28;19933;-87
2024/02/13 17:27:52;;;;;;;;;;;;;;;7.33;73.43;101434.94;4143601;28;19944;-88
2024/02/13 17:30:14;;;;;;;;;;;;;;;7.29;73.88;101433.50;4144319;28;20353;-87
2024/02/13 17:32:41;;;;;;;;;;;;;;;7.26;73.50;101428.41;4144961;28;19932;-86
2024/02/13 17:35:07;;;;;;;;;;;;;;;7.22;73.55;101433.22;4146110;28;19973;-90
2024/02/13 17:37:28;;;;;;;;;;;;;;;7.19;73.49;101436.19;4151412;28;20394;-87
2024/02/13 17:39:51;;;;;;;;;;;;;;;7.17;73.89;101441.69;4129557;28;19975;-87
2024/02/13 17:42:12;;;;;;;;;;;;;;;7.13;73.84;101440.28;4143111;28;19953;-88
2024/02/13 17:44:33;;;;;;;;;;;;;;;7.10;74.08;101440.56;4156559;28;20359;-88
2024/02/13 17:46:54;;;;;;;;;;;;;;;7.04;74.10;101438.44;4161530;28;19932;-87
2024/02/13 17:49:18;;;;;;;;;;;;;;;7.01;74.10;101441.38;4143220;28;20015;-91
2024/02/13 17:51:42;;;;;;;;;;;;;;;6.98;74.37;101438.97;4155600;28;19976;-84
2024/02/13 17:54:04;;;;;;;;;;;;;;;6.95;74.45;101439.25;4143548;28;19948;-82
2024/02/13 17:56:25;;;;;;;;;;;;;;;6.92;74.55;101443.03;4156650;28;20292;-84
2024/02/13 17:58:46;;;;;;;;;;;;;;;6.90;74.66;101442.34;4142529;28;19936;-87
2024/02/13 18:01:13;;;;;;;;;;;;;;;6.85;74.27;101442.75;4138763;28;19932;-81
2024/02/13 18:03:33;;;;;;;;;;;;;;;6.82;74.57;101437.63;4153496;28;19976;-84
2024/02/13 18:05:55;;;;;;;;;;;;;;;6.80;74.75;101436.94;4142458;28;20312;-84
2024/02/13 18:08:19;;;;;;;;;;;;;;;6.77;74.86;101433.66;4139560;28;19936;-83
2024/02/13 18:10:40;;;;;;;;;;;;;;;6.73;74.92;101433.06;4161435;23;20003;-68
2024/02/13 18:12:42;;;;;;;;;;;;;;;6.72;75.10;101438.59;4168995;28;20420;-68
2024/02/13 18:14:44;;;;;;;;;;;;;;;6.69;74.81;101437.00;4173674;28;20007;-69
2024/02/13 18:16:49;;;;;;;;;;;;;;;6.65;75.09;101430.22;4176184;28;20024;-69
2024/02/13 18:18:59;;;;;;;;;;;;;;;6.62;75.22;101436.69;4177777;28;20020;-68
2024/02/13 18:21:06;;;;;;;;;;;;;;;6.58;75.06;101443.34;4177330;28;20031;-68
2024/02/13 18:23:08;;;;;;;;;;;;;;;6.55;75.15;101446.28;4157837;28;19933;-68
2024/02/13 18:25:10;;;;;;;;;;;;;;;6.54;75.29;101449.94;4175333;28;20015;-68
2024/02/13 18:27:13;;;;;;;;;;;;;;;6.53;75.37;101450.09;4174330;28;20024;-68
2024/02/13 18:29:21;;;;;;;;;;;;;;;6.51;75.25;101444.00;4173904;28;20376;-69
2024/02/13 18:31:25;;;;;;;;;;;;;;;6.47;75.36;101443.41;4173069;28;20030;-67
2024/02/13 18:33:27;;;;;;;;;;;;;;;6.44;75.38;101439.16;4175634;28;19940;-69
2024/02/13 18:35:31;;;;;;;;;;;;;;;6.43;75.41;101439.31;4177440;28;20037;-69
2024/02/13 18:37:34;;;;;;;;;;;;;;;6.40;75.54;101448.47;4177795;28;20027;-70
2024/02/13 18:39:38;;;;;;;;;;;;;;;6.38;75.57;101442.38;4174541;28;20031;-71
2024/02/13 18:41:42;;;;;;;;;;;;;;;6.36;75.77;101446.16;4177601;28;20039;-72
2024/02/13 18:43:44;;;;;;;;;;;;;;;6.32;76.12;101441.06;4177984;28;20019;-72
2024/02/13 18:45:46;;;;;;;;;;;;;;;6.30;76.00;101434.13;4178221;28;20035;-71
2024/02/13 18:47:53;;;;;;;;;;;;;;;6.27;76.24;101445.97;4177450;28;19924;-70
2024/02/13 18:49:55;;;;;;;;;;;;;;;6.25;76.16;101434.53;4178679;28;20523;-70
2024/02/13 18:51:57;;;;;;;;;;;;;;;6.22;76.55;101450.91;4177485;28;20044;-71
2024/02/13 18:54:03;;;;;;;;;;;;;;;6.20;76.27;101450.16;4177162;28;19960;-70
2024/02/13 18:56:05;;;;;;;;;;;;;;;6.18;76.50;101437.88;4178443;28;20072;-69
2024/02/13 18:58:07;;;;;;;;;;;;;;;6.17;76.44;101444.22;4177849;28;20377;-71
2024/02/13 19:00:09;;;;;;;;;;;;;;;6.14;76.57;101448.00;4176587;28;20027;-71
2024/02/13 19:02:11;;;;;;;;;;;;;;;6.12;76.72;101436.56;4176632;28;20024;-70
2024/02/13 19:04:14;;;;;;;;;;;;;;;6.11;76.76;101440.22;4177779;28;20020;-71
2024/02/13 19:06:16;;;;;;;;;;;;;;;6.08;76.94;101444.03;4177209;28;20429;-70
2024/02/13 19:08:18;;;;;;;;;;;;;;;6.07;76.73;101446.84;4177299;28;20354;-70
2024/02/13 19:10:22;;;;;;;;;;;;;;;6.04;76.72;101444.41;4176002;28;20032;-69
2024/02/13 19:12:26;;;;;;;;;;;;;;;6.03;76.74;101445.38;4176932;28;20351;-69
2024/02/13 19:14:29;;;;;;;;;;;;;;;6.00;76.86;101441.13;4172625;28;20042;-68
2024/02/13 19:16:31;;;;;;;;;;;;;;;5.98;77.00;101447.63;4176908;28;20517;-69
2024/02/13 19:18:34;;;;;;;;;;;;;;;5.95;76.99;101440.63;4176783;28;20019;-69
2024/02/13 19:20:37;;;;;;;;;;;;;;;5.95;77.11;101456.72;4176869;28;20040;-68
2024/02/13 19:22:39;;;;;;;;;;;;;;;5.92;77.00;101455.16;4192807;28;20019;-69
2024/02/13 19:24:40;;;;;;;;;;;;;;;5.91;77.20;101453.47;4175378;28;20015;-69
2024/02/13 19:26:43;;;;;;;;;;;;;;;5.89;77.00;101447.38;4177455;28;19929;-71
2024/02/13 19:28:46;;;;;;;;;;;;;;;5.88;77.25;101450.19;4176244;28;20433;-70
2024/02/13 19:30:50;;;;;;;;;;;;;;;5.86;77.06;101450.31;4176074;28;19964;-71
2024/02/13 19:32:51;;;;;;;;;;;;;;;5.84;77.20;101457.63;4177184;28;20052;-69
2024/02/13 19:34:53;;;;;;;;;;;;;;;5.82;77.35;101453.38;4175243;28;19994;-69
2024/02/13 19:36:56;;;;;;;;;;;;;;;5.82;77.28;101456.91;4174682;28;20414;-69
2024/02/13 19:39:00;;;;;;;;;;;;;;;5.80;77.64;101448.16;4177242;28;20019;-69
2024/02/13 19:41:04;;;;;;;;;;;;;;;5.79;77.59;101449.13;4178261;28;19948;-69
2024/02/13 19:43:07;;;;;;;;;;;;;;;5.76;77.65;101450.22;4181184;28;20015;-68
2024/02/13 19:45:09;;;;;;;;;;;;;;;5.75;77.80;101456.59;4180607;28;20690;-69
2024/02/13 19:47:11;;;;;;;;;;;;;;;5.71;77.83;101447.09;4181380;28;20016;-69
2024/02/13 19:49:15;;;;;;;;;;;;;;;5.71;77.92;101459.66;4181115;28;20377;-69
2024/02/13 19:51:18;;;;;;;;;;;;;;;5.69;77.81;101450.84;4196173;28;20028;-69
2024/02/13 19:53:20;;;;;;;;;;;;;;;5.66;78.03;101459.16;4180912;28;20023;-70